createdAt,value
2022-08-08T00:01:16.938Z,100114.22
2022-08-08T00:03:47.569Z,100118.72
2022-08-08T00:06:28.458Z,100114.19
2022-08-08T00:09:07.852Z,100118.72
2022-08-08T00:12:02.858Z,100114.53
2022-08-08T00:14:56.848Z,100114.75
2022-08-08T00:17:47.922Z,100108.50
2022-08-08T00:20:21.654Z,100114.75
2022-08-08T00:22:50.466Z,100112.44
2022-08-08T00:25:39.164Z,100100.69
2022-08-08T00:28:33.987Z,100095.94
2022-08-08T00:32:29.239Z,100091.72
2022-08-08T00:34:18.058Z,100084.84
2022-08-08T00:36:42.849Z,100081.41
2022-08-08T00:41:06.310Z,100080.19
2022-08-08T00:42:09.230Z,100077.56
2022-08-08T00:44:50.993Z,100087.41
2022-08-08T00:47:23.497Z,100095.16
2022-08-08T00:50:09.256Z,100093.69
2022-08-08T00:52:39.969Z,100088.72
2022-08-08T00:55:16.739Z,100086.81
2022-08-08T00:57:58.207Z,100089.09
2022-08-08T01:00:27.057Z,100086.59
2022-08-08T01:03:58.498Z,100086.28
2022-08-08T01:06:05.840Z,100084.16
2022-08-08T01:08:51.931Z,100075.22
2022-08-08T01:11:29.717Z,100078.50
2022-08-08T01:14:08.559Z,100074.69
2022-08-08T01:16:59.323Z,100078.13
2022-08-08T01:20:01.532Z,100078.31
2022-08-08T01:22:50.586Z,100081.50
2022-08-08T01:25:40.301Z,100083.69
2022-08-08T01:28:18.046Z,100082.69
2022-08-08T01:31:05.976Z,100084.06
2022-08-08T01:34:00.126Z,100083.78
2022-08-08T01:36:41.670Z,100076.97
2022-08-08T01:39:23.871Z,100069.88
2022-08-08T01:42:14.906Z,100067.00
2022-08-08T01:44:53.306Z,100059.16
2022-08-08T01:48:14.644Z,100056.50
2022-08-08T01:50:26.994Z,100054.22
2022-08-08T01:55:16.029Z,100056.53
2022-08-08T01:56:31.023Z,100057.19
2022-08-08T01:58:58.699Z,100059.28
2022-08-08T02:02:00.330Z,100055.53
2022-08-08T02:04:35.963Z,100062.22
2022-08-08T02:07:05.529Z,100060.63
2022-08-08T02:10:03.656Z,100066.06
2022-08-08T02:12:33.573Z,100056.94
2022-08-08T02:15:11.168Z,100073.47
2022-08-08T02:18:10.294Z,100069.56
2022-08-08T02:21:01.409Z,100080.91
2022-08-08T02:23:37.545Z,100076.94
2022-08-08T02:26:10.714Z,100085.34
2022-08-08T02:28:51.699Z,100087.97
2022-08-08T02:31:58.389Z,100087.53
2022-08-08T02:34:39.326Z,100097.06
2022-08-08T02:37:52.089Z,100097.06
2022-08-08T02:40:37.068Z,100095.47
2022-08-08T02:44:38.656Z,100094.56
2022-08-08T02:46:21.532Z,100093.63
2022-08-08T02:49:08.139Z,100098.78
2022-08-08T02:52:02.094Z,100093.06
2022-08-08T02:54:44.915Z,100084.75
2022-08-08T02:57:44.639Z,100097.66
2022-08-08T03:00:29.610Z,100092.34
2022-08-08T03:05:05.455Z,100094.78
2022-08-08T03:06:34.477Z,100102.47
2022-08-08T03:09:21.364Z,100116.88
2022-08-08T03:12:03.011Z,100107.91
2022-08-08T03:15:56.483Z,100096.34
2022-08-08T03:17:59.877Z,100109.75
2022-08-08T03:20:51.374Z,100114.09
2022-08-08T03:23:20.535Z,100115.13
2022-08-08T03:25:50.254Z,100112.03
2022-08-08T03:28:20.847Z,100103.03
2022-08-08T03:31:07.423Z,100108.19
2022-08-08T03:33:56.215Z,100099.50
2022-08-08T03:36:27.508Z,100105.03
2022-08-08T03:39:14.790Z,100110.12
2022-08-08T03:41:43.146Z,100105.03
2022-08-08T03:44:33.867Z,100096.25
2022-08-08T03:47:14.068Z,100094.19
2022-08-08T03:50:00.689Z,100103.84
2022-08-08T03:52:31.280Z,100112.09
2022-08-08T03:55:09.991Z,100116.59
2022-08-08T03:58:09.419Z,100114.69
2022-08-08T04:00:26.681Z,100095.75
2022-08-08T04:03:11.741Z,100102.59
2022-08-08T04:05:39.746Z,100110.38
2022-08-08T04:08:33.171Z,100113.59
2022-08-08T04:11:02.449Z,100110.53
2022-08-08T04:14:04.242Z,100116.31
2022-08-08T04:16:38.786Z,100118.13
2022-08-08T04:19:23.735Z,100115.37
2022-08-08T04:21:54.207Z,100113.97
2022-08-08T04:24:28.884Z,100128.91
2022-08-08T04:26:59.173Z,100132.97
2022-08-08T04:29:27.074Z,100135.63
2022-08-08T04:31:58.512Z,100132.09
2022-08-08T04:34:31.899Z,100138.63
2022-08-08T04:37:10.760Z,100141.09
2022-08-08T04:40:03.784Z,100136.13
2022-08-08T04:42:27.846Z,100138.06
2022-08-08T04:44:57.353Z,100137.38
2022-08-08T04:47:24.416Z,100141.09
2022-08-08T04:50:01.392Z,100133.91
2022-08-08T04:52:33.990Z,100144.66
2022-08-08T04:55:04.205Z,100150.81
2022-08-08T04:57:34.377Z,100150.59
2022-08-08T05:00:02.500Z,100149.09
2022-08-08T05:02:30.607Z,100151.53
2022-08-08T05:04:59.507Z,100159.06
2022-08-08T05:07:38.136Z,100160.06
2022-08-08T05:10:12.911Z,100155.56
2022-08-08T05:12:53.361Z,100151.09
2022-08-08T05:15:31.535Z,100150.88
2022-08-08T05:18:14.719Z,100155.09
2022-08-08T05:20:50.474Z,100154.88
2022-08-08T05:23:20.586Z,100156.19
2022-08-08T05:25:49.686Z,100155.56
2022-08-08T05:28:56.769Z,100155.31
2022-08-08T05:31:19.310Z,100158.75
2022-08-08T05:33:50.897Z,100161.59
2022-08-08T05:36:25.438Z,100165.81
2022-08-08T05:38:55.731Z,100163.47
2022-08-08T05:41:27.827Z,100158.41
2022-08-08T05:44:03.153Z,100166.81
2022-08-08T05:46:32.518Z,100161.97
2022-08-08T05:49:00.578Z,100158.87
2022-08-08T05:51:27.775Z,100164.69
2022-08-08T05:54:27.101Z,100164.97
2022-08-08T05:57:04.741Z,100171.78
2022-08-08T05:59:59.552Z,100165.56
2022-08-08T06:02:43.458Z,100160.31
2022-08-08T06:05:34.644Z,100151.06
2022-08-08T06:08:01.963Z,100151.28
2022-08-08T06:10:31.132Z,100152.94
2022-08-08T06:12:58.420Z,100158.16
2022-08-08T06:15:38.688Z,100163.59
2022-08-08T06:18:20.266Z,100167.53
2022-08-08T06:20:49.610Z,100172.87
2022-08-08T06:23:17.616Z,100169.97
2022-08-08T06:26:38.462Z,100169.84
2022-08-08T06:29:49.295Z,100164.66
2022-08-08T06:32:10.422Z,100167.47
2022-08-08T06:34:52.627Z,100164.88
2022-08-08T06:37:37.001Z,100158.84
2022-08-08T06:40:07.181Z,100158.59
2022-08-08T06:42:38.075Z,100168.53
2022-08-08T06:45:05.836Z,100173.22
2022-08-08T06:47:52.811Z,100177.16
2022-08-08T06:50:32.178Z,100174.25
2022-08-08T06:53:01.418Z,100183.41
2022-08-08T06:55:42.115Z,100181.53
2022-08-08T06:58:10.326Z,100179.03
2022-08-08T07:00:40.981Z,100172.41
2022-08-08T07:03:09.872Z,100178.63
2022-08-08T07:06:02.002Z,100181.69
2022-08-08T07:08:31.608Z,100178.25
2022-08-08T07:10:59.339Z,100174.66
2022-08-08T07:13:29.698Z,100172.66
2022-08-08T07:16:05.017Z,100172.50
2022-08-08T07:18:42.556Z,100171.41
2022-08-08T07:21:18.441Z,100165.38
2022-08-08T07:24:01.672Z,100167.94
2022-08-08T07:26:35.210Z,100174.44
2022-08-08T07:29:05.892Z,100178.12
2022-08-08T07:31:36.430Z,100183.00
2022-08-08T07:34:09.230Z,100186.94
2022-08-08T07:36:37.478Z,100190.66
2022-08-08T07:39:16.443Z,100186.22
2022-08-08T07:42:03.609Z,100179.28
2022-08-08T07:44:37.807Z,100192.56
2022-08-08T07:47:09.118Z,100204.16
2022-08-08T07:49:36.601Z,100199.38
2022-08-08T07:52:13.256Z,100201.41
2022-08-08T07:54:52.635Z,100195.63
2022-08-08T07:57:22.790Z,100203.59
2022-08-08T08:00:05.301Z,100208.16
2022-08-08T08:02:55.792Z,100210.41
2022-08-08T08:05:22.532Z,100208.69
2022-08-08T08:08:04.432Z,100208.41
2022-08-08T08:10:33.173Z,100210.50
2022-08-08T08:13:25.423Z,100202.34
2022-08-08T08:16:00.294Z,100203.66
2022-08-08T08:18:52.118Z,100202.31
2022-08-08T08:21:57.689Z,100202.56
2022-08-08T08:24:30.664Z,100206.56
2022-08-08T08:27:00.099Z,100203.91
2022-08-08T08:29:30.497Z,100202.13
2022-08-08T08:31:59.196Z,100201.75
2022-08-08T08:34:32.252Z,100207.22
2022-08-08T08:37:07.543Z,100202.09
2022-08-08T08:39:59.838Z,100206.34
2022-08-08T08:42:29.028Z,100215.66
2022-08-08T08:45:21.795Z,100223.41
2022-08-08T08:47:53.197Z,100227.13
2022-08-08T08:50:33.415Z,100234.09
2022-08-08T08:53:04.734Z,100225.78
2022-08-08T08:55:50.414Z,100216.78
2022-08-08T08:58:32.464Z,100220.44
2022-08-08T09:01:08.999Z,100221.88
2022-08-08T09:03:46.771Z,100225.31
2022-08-08T09:06:28.645Z,100223.59
2022-08-08T09:09:03.816Z,100223.34
2022-08-08T09:11:33.492Z,100230.41
2022-08-08T09:14:00.650Z,100225.97
2022-08-08T09:16:29.027Z,100232.84
2022-08-08T09:19:00.205Z,100227.06
2022-08-08T09:21:56.004Z,100230.50
2022-08-08T09:24:17.680Z,100240.81
2022-08-08T09:26:51.638Z,100244.63
2022-08-08T09:29:24.731Z,100240.47
2022-08-08T09:31:56.181Z,100231.53
2022-08-08T09:34:32.602Z,100226.34
2022-08-08T09:37:39.558Z,100231.56
2022-08-08T09:40:10.574Z,100226.19
2022-08-08T09:42:44.201Z,100225.50
2022-08-08T09:46:01.991Z,100224.09
2022-08-08T09:48:16.303Z,100223.53
2022-08-08T09:50:50.251Z,100215.53
2022-08-08T09:53:32.014Z,100210.53
2022-08-08T09:56:11.635Z,100220.44
2022-08-08T09:58:44.846Z,100211.56
2022-08-08T10:01:14.920Z,100208.97
2022-08-08T10:04:02.230Z,100206.84
2022-08-08T10:06:32.546Z,100210.19
2022-08-08T10:09:02.229Z,100205.19
2022-08-08T10:12:27.004Z,100214.25
2022-08-08T10:14:28.459Z,100207.53
2022-08-08T10:18:05.826Z,100210.28
2022-08-08T10:19:58.591Z,100226.25
2022-08-08T10:22:28.099Z,100224.97
2022-08-08T10:25:02.408Z,100223.87
2022-08-08T10:27:34.484Z,100221.19
2022-08-08T10:30:04.648Z,100219.00
2022-08-08T10:32:48.377Z,100218.81
2022-08-08T10:36:07.076Z,100214.41
2022-08-08T10:38:07.954Z,100202.69
2022-08-08T10:40:37.631Z,100196.37
2022-08-08T10:43:09.711Z,100200.44
2022-08-08T10:45:56.301Z,100196.06
2022-08-08T10:48:55.701Z,100190.56
2022-08-08T10:51:24.187Z,100201.94
2022-08-08T10:53:59.523Z,100214.03
2022-08-08T10:56:34.562Z,100229.66
2022-08-08T10:59:04.077Z,100220.59
2022-08-08T11:01:33.373Z,100233.16
2022-08-08T11:04:02.452Z,100236.47
2022-08-08T11:06:34.469Z,100232.97
2022-08-08T11:09:09.748Z,100220.94
2022-08-08T11:12:05.287Z,100221.38
2022-08-08T11:14:33.411Z,100227.22
2022-08-08T11:17:03.853Z,100224.81
2022-08-08T11:19:31.766Z,100222.78
2022-08-08T11:22:00.257Z,100213.25
2022-08-08T11:24:31.762Z,100214.72
2022-08-08T11:27:10.310Z,100213.72
2022-08-08T11:29:50.809Z,100214.94
2022-08-08T11:32:29.338Z,100218.16
2022-08-08T11:35:24.439Z,100212.84
2022-08-08T11:38:36.497Z,100214.00
2022-08-08T11:40:40.131Z,100212.25
2022-08-08T11:43:11.537Z,100213.94
2022-08-08T11:46:07.038Z,100222.91
2022-08-08T11:48:28.905Z,100228.13
2022-08-08T11:50:58.663Z,100225.62
2022-08-08T11:53:26.313Z,100228.13
2022-08-08T11:55:53.858Z,100230.94
2022-08-08T11:58:31.917Z,100232.03
2022-08-08T12:00:59.940Z,100234.53
2022-08-08T12:03:30.715Z,100237.97
2022-08-08T12:05:58.390Z,100243.81
2022-08-08T12:08:30.287Z,100244.25
2022-08-08T12:10:59.781Z,100245.75
2022-08-08T12:13:37.875Z,100246.25
2022-08-08T12:16:16.511Z,100246.28
2022-08-08T12:18:46.596Z,100241.00
2022-08-08T12:21:19.819Z,100245.97
2022-08-08T12:24:28.144Z,100245.50
2022-08-08T12:26:57.106Z,100233.41
2022-08-08T12:29:42.435Z,100235.12
2022-08-08T12:32:13.582Z,100238.50
2022-08-08T12:34:50.355Z,100232.34
2022-08-08T12:37:40.789Z,100241.00
2022-08-08T12:40:22.603Z,100242.09
2022-08-08T12:42:51.603Z,100241.25
2022-08-08T12:45:54.237Z,100249.50
2022-08-08T12:48:32.140Z,100242.81
2022-08-08T12:50:57.685Z,100247.97
2022-08-08T12:53:37.671Z,100259.47
2022-08-08T12:56:18.024Z,100267.75
2022-08-08T12:58:53.985Z,100263.78
2022-08-08T13:01:35.014Z,100261.09
2022-08-08T13:04:18.361Z,100251.28
2022-08-08T13:06:54.233Z,100249.69
2022-08-08T13:09:33.086Z,100250.25
2022-08-08T13:12:26.844Z,100256.16
2022-08-08T13:14:52.997Z,100253.94
2022-08-08T13:18:07.873Z,100256.75
2022-08-08T13:20:17.393Z,100253.16
2022-08-08T13:23:26.941Z,100251.75
2022-08-08T13:25:50.272Z,100250.84
2022-08-08T13:28:32.213Z,100252.75
2022-08-08T13:31:01.597Z,100257.63
2022-08-08T13:33:42.166Z,100248.53
2022-08-08T13:36:10.926Z,100241.53
2022-08-08T13:38:39.869Z,100233.16
2022-08-08T13:41:06.979Z,100228.88
2022-08-08T13:43:45.360Z,100228.66
2022-08-08T13:46:28.746Z,100232.88
2022-08-08T13:50:33.546Z,100230.00
2022-08-08T13:52:05.340Z,100230.31
2022-08-08T13:54:33.549Z,100215.75
2022-08-08T13:57:00.949Z,100210.50
2022-08-08T13:59:39.908Z,100207.81
2022-08-08T14:02:16.233Z,100209.81
2022-08-08T14:04:53.315Z,100210.75
2022-08-08T14:07:22.048Z,100204.00
2022-08-08T14:10:05.072Z,100196.47
2022-08-08T14:12:38.821Z,100206.31
2022-08-08T14:15:11.166Z,100195.41
2022-08-08T14:17:57.796Z,100202.41
2022-08-08T14:20:57.852Z,100194.28
2022-08-08T14:24:04.766Z,100199.50
2022-08-08T14:26:22.777Z,100209.03
2022-08-08T14:28:56.027Z,100215.12
2022-08-08T14:32:06.402Z,100218.41
2022-08-08T14:34:22.895Z,100214.78
2022-08-08T14:36:53.458Z,100211.50
2022-08-08T14:39:24.742Z,100211.88
2022-08-08T14:41:59.406Z,100216.03
2022-08-08T14:44:33.535Z,100218.72
2022-08-08T14:47:02.706Z,100210.50
2022-08-08T14:50:06.575Z,100214.78
2022-08-08T14:52:46.284Z,100212.28
2022-08-08T14:55:14.526Z,100210.41
2022-08-08T14:58:03.214Z,100211.47
2022-08-08T15:00:34.013Z,100218.41
2022-08-08T15:03:16.183Z,100219.97
2022-08-08T15:05:54.297Z,100215.38
2022-08-08T15:08:34.452Z,100222.59
2022-08-08T15:11:10.263Z,100223.75
2022-08-08T15:14:01.498Z,100215.56
2022-08-08T15:16:28.124Z,100220.13
2022-08-08T15:18:55.666Z,100219.06
2022-08-08T15:21:22.365Z,100222.81
2022-08-08T15:23:54.452Z,100214.28
2022-08-08T15:26:21.513Z,100218.03
2022-08-08T15:28:54.202Z,100208.94
2022-08-08T15:31:21.815Z,100220.09
2022-08-08T15:34:29.016Z,100217.91
2022-08-08T15:36:56.549Z,100228.91
2022-08-08T15:39:23.338Z,100227.44
2022-08-08T15:41:52.604Z,100218.34
2022-08-08T15:44:21.185Z,100225.75
2022-08-08T15:46:51.042Z,100227.59
2022-08-08T15:49:40.756Z,100222.75
2022-08-08T15:52:08.703Z,100221.78
2022-08-08T15:54:38.469Z,100219.69
2022-08-08T15:57:07.779Z,100220.37
2022-08-08T16:00:25.308Z,100219.00
2022-08-08T16:02:30.486Z,100220.37
2022-08-08T16:04:59.551Z,100217.19
2022-08-08T16:07:51.074Z,100215.19
2022-08-08T16:13:14.405Z,100215.34
2022-08-08T16:13:33.762Z,100206.75
2022-08-08T16:15:57.228Z,100211.22
2022-08-08T16:18:32.177Z,100212.00
2022-08-08T16:21:00.974Z,100211.50
2022-08-08T16:23:32.145Z,100207.16
2022-08-08T16:26:04.238Z,100207.69
2022-08-08T16:28:35.790Z,100201.69
2022-08-08T16:31:07.591Z,100200.88
2022-08-08T16:33:39.744Z,100194.94
2022-08-08T16:36:13.052Z,100204.62
2022-08-08T16:38:47.356Z,100214.69
2022-08-08T16:41:20.164Z,100212.34
2022-08-08T16:43:49.311Z,100206.91
2022-08-08T16:46:36.386Z,100207.59
2022-08-08T16:49:05.181Z,100208.41
2022-08-08T16:55:05.138Z,100214.59
2022-08-08T16:55:23.924Z,100216.19
2022-08-08T16:57:27.967Z,100215.88
2022-08-08T16:59:55.069Z,100220.94
2022-08-08T17:02:32.889Z,100220.66
2022-08-08T17:05:06.380Z,100227.75
2022-08-08T17:07:33.160Z,100221.31
2022-08-08T17:10:05.271Z,100225.88
2022-08-08T17:12:34.702Z,100231.34
2022-08-08T17:15:17.723Z,100233.44
2022-08-08T17:18:03.461Z,100237.25
2022-08-08T17:20:39.750Z,100242.09
2022-08-08T17:23:17.545Z,100245.41
2022-08-08T17:25:54.529Z,100253.91
2022-08-08T17:28:33.943Z,100256.16
2022-08-08T17:31:44.334Z,100259.66
2022-08-08T17:34:49.773Z,100269.78
2022-08-08T17:37:00.593Z,100261.81
2022-08-08T17:40:03.953Z,100259.16
2022-08-08T17:42:13.837Z,100263.66
2022-08-08T17:44:44.266Z,100265.59
2022-08-08T17:47:19.541Z,100257.34
2022-08-08T17:49:52.760Z,100266.69
2022-08-08T17:52:20.282Z,100253.81
2022-08-08T17:54:55.848Z,100246.84
2022-08-08T17:57:24.152Z,100241.38
2022-08-08T17:59:51.686Z,100248.16
2022-08-08T18:02:28.585Z,100252.88
2022-08-08T18:04:58.866Z,100253.09
2022-08-08T18:08:04.011Z,100247.75
2022-08-08T18:10:15.589Z,100254.75
2022-08-08T18:12:44.306Z,100256.66
2022-08-08T18:15:13.490Z,100263.19
2022-08-08T18:18:09.011Z,100262.41
2022-08-08T18:20:37.263Z,100267.72
2022-08-08T18:23:15.136Z,100267.94
2022-08-08T18:25:45.371Z,100271.94
2022-08-08T18:28:13.500Z,100270.34
2022-08-08T18:30:44.446Z,100275.63
2022-08-08T18:33:19.931Z,100278.06
2022-08-08T18:36:03.794Z,100279.75
2022-08-08T18:38:32.266Z,100282.47
2022-08-08T18:41:01.109Z,100283.28
2022-08-08T18:43:58.423Z,100290.47
2022-08-08T18:46:55.690Z,100286.88
2022-08-08T18:49:12.571Z,100287.28
2022-08-08T18:51:53.512Z,100289.47
2022-08-08T18:54:24.751Z,100282.84
2022-08-08T18:56:57.286Z,100286.53
2022-08-08T18:59:24.480Z,100283.91
2022-08-08T19:02:27.206Z,100289.19
2022-08-08T19:04:42.920Z,100285.72
2022-08-08T19:07:10.572Z,100301.03
2022-08-08T19:09:49.071Z,100297.44
2022-08-08T19:12:26.368Z,100302.56
2022-08-08T19:14:53.523Z,100305.16
2022-08-08T19:17:29.477Z,100306.41
2022-08-08T19:20:08.964Z,100306.09
2022-08-08T19:22:36.073Z,100308.41
2022-08-08T19:26:02.516Z,100301.37
2022-08-08T19:27:55.640Z,100298.00
2022-08-08T19:30:26.546Z,100308.06
2022-08-08T19:32:54.080Z,100306.03
2022-08-08T19:35:45.234Z,100300.72
2022-08-08T19:38:17.405Z,100313.25
2022-08-08T19:40:54.340Z,100308.28
2022-08-08T19:43:28.145Z,100314.81
2022-08-08T19:45:58.564Z,100306.72
2022-08-08T19:48:30.624Z,100317.75
2022-08-08T19:50:59.407Z,100314.81
2022-08-08T19:53:47.052Z,100321.59
2022-08-08T19:56:16.321Z,100318.25
2022-08-08T19:58:52.762Z,100319.53
2022-08-08T20:01:25.765Z,100306.22
2022-08-08T20:04:03.438Z,100310.81
2022-08-08T20:06:30.583Z,100308.13
2022-08-08T20:09:08.875Z,100313.47
2022-08-08T20:11:42.870Z,100305.75
2022-08-08T20:14:31.783Z,100307.00
2022-08-08T20:16:59.517Z,100304.91
2022-08-08T20:19:34.384Z,100292.31
2022-08-08T20:22:13.229Z,100294.53
2022-08-08T20:24:48.287Z,100298.59
2022-08-08T20:27:20.623Z,100295.75
2022-08-08T20:30:01.059Z,100302.66
2022-08-08T20:32:29.662Z,100298.41
2022-08-08T20:35:00.732Z,100293.66
2022-08-08T20:37:47.031Z,100295.16
2022-08-08T20:40:17.968Z,100289.97
2022-08-08T20:43:00.657Z,100287.69
2022-08-08T20:45:57.591Z,100292.19
2022-08-08T20:48:21.174Z,100285.25
2022-08-08T20:50:53.415Z,100288.84
2022-08-08T20:54:00.176Z,100287.72
2022-08-08T20:56:13.899Z,100279.69
2022-08-08T20:58:47.507Z,100275.91
2022-08-08T21:01:20.202Z,100271.28
2022-08-08T21:03:55.382Z,100273.41
2022-08-08T21:06:23.421Z,100271.75
2022-08-08T21:09:10.355Z,100280.06
2022-08-08T21:11:50.505Z,100280.31
2022-08-08T21:14:30.457Z,100278.78
2022-08-08T21:17:01.325Z,100291.00
2022-08-08T21:19:44.146Z,100296.03
2022-08-08T21:22:13.731Z,100288.44
2022-08-08T21:24:41.746Z,100290.28
2022-08-08T21:28:06.757Z,100298.75
2022-08-08T21:30:18.632Z,100299.25
2022-08-08T21:32:52.119Z,100301.47
2022-08-08T21:36:16.798Z,100306.97
2022-08-08T21:38:16.434Z,100316.06
2022-08-08T21:40:54.796Z,100318.50
2022-08-08T21:43:33.940Z,100320.22
2022-08-08T21:48:07.163Z,100312.28
2022-08-08T21:48:53.962Z,100318.78
2022-08-08T21:54:30.978Z,100318.91
2022-08-08T21:54:32.313Z,100319.09
2022-08-08T21:56:57.095Z,100318.69
2022-08-08T21:59:28.355Z,100323.03
2022-08-08T22:02:11.150Z,100320.84
2022-08-08T22:04:40.090Z,100325.13
2022-08-08T22:07:07.171Z,100326.41
2022-08-08T22:09:37.452Z,100329.19
2022-08-08T22:12:09.323Z,100325.50
2022-08-08T22:14:42.570Z,100328.87
2022-08-08T22:17:10.586Z,100334.97
2022-08-08T22:20:10.642Z,100331.63
2022-08-08T22:22:29.222Z,100329.63
2022-08-08T22:24:58.314Z,100330.44
2022-08-08T22:27:38.923Z,100325.63
2022-08-08T22:30:14.640Z,100324.66
2022-08-08T22:32:41.865Z,100316.34
2022-08-08T22:35:16.875Z,100316.62
2022-08-08T22:37:54.675Z,100317.75
2022-08-08T22:40:22.141Z,100313.62
2022-08-08T22:42:48.878Z,100311.78
2022-08-08T22:45:20.147Z,100314.44
2022-08-08T22:47:52.132Z,100308.22
2022-08-08T22:50:25.189Z,100311.59
2022-08-08T22:54:32.700Z,100308.19
2022-08-08T22:55:58.785Z,100305.75
2022-08-08T22:58:29.179Z,100312.75
2022-08-08T23:00:59.843Z,100313.88
2022-08-08T23:03:52.516Z,100318.97
2022-08-08T23:06:16.862Z,100316.72
2022-08-08T23:08:55.851Z,100310.94
2022-08-08T23:12:17.312Z,100310.22
2022-08-08T23:14:16.991Z,100315.37
2022-08-08T23:16:47.054Z,100315.28
2022-08-08T23:19:17.882Z,100317.56
2022-08-08T23:21:45.820Z,100309.22
2022-08-08T23:24:22.821Z,100305.75
2022-08-08T23:26:55.357Z,100305.56
2022-08-08T23:29:31.247Z,100304.50
2022-08-08T23:31:58.780Z,100309.13
2022-08-08T23:34:25.700Z,100309.22
2022-08-08T23:36:58.806Z,100321.13
2022-08-08T23:39:32.159Z,100323.62
2022-08-08T23:42:09.015Z,100329.34
2022-08-08T23:44:39.311Z,100332.50
2022-08-08T23:49:04.474Z,100335.87
2022-08-08T23:50:03.038Z,100338.72
2022-08-08T23:52:32.262Z,100342.88
2022-08-08T23:55:07.306Z,100337.00
2022-08-08T23:57:53.277Z,100344.41
